Time;durP1;ratioP1;P1;durP2;ratioP2;P2;SDS_P1;SDS_P2;PMS_P1;PMS_P2;Temp;Humidity;BMP_temperature;BMP_pressure;BME280_temperature;BME280_humidity;BME280_pressure;Samples;Min_cycle;Max_cycle;Signal;HPM_P1;HPM_P2
2021/04/05 00:01:01;;;;;;;10.50;9.20;;;4.20;99.90;;;;;;5045541;28;21216;-87
2021/04/05 00:03:28;;;;;;;10.60;9.67;;;4.30;99.90;;;;;;5046860;28;20621;-87
2021/04/05 00:05:55;;;;;;;10.43;9.23;;;4.10;99.90;;;;;;5043906;28;20700;-87
2021/04/05 00:08:25;;;;;;;9.70;8.80;;;4.20;99.90;;;;;;5042639;28;21021;-90
2021/04/05 00:10:53;;;;;;;12.10;9.77;;;4.10;99.90;;;;;;5047932;28;20669;-86
2021/04/05 00:13:24;;;;;;;12.27;9.57;;;4.10;99.90;;;;;;5047767;28;20637;-91
2021/04/05 00:15:51;;;;;;;9.10;8.20;;;4.00;99.90;;;;;;5046339;28;20625;-89
2021/04/05 00:18:18;;;;;;;12.23;8.80;;;4.00;99.90;;;;;;5050657;28;20612;-89
2021/04/05 00:20:49;;;;;;;11.17;9.13;;;3.90;99.90;;;;;;5048781;28;20660;-90
2021/04/05 00:23:16;;;;;;;10.00;9.00;;;3.90;99.90;;;;;;5045445;28;20633;-90
2021/04/05 00:25:42;;;;;;;10.67;9.57;;;3.90;99.90;;;;;;5049692;28;20630;-89
2021/04/05 00:28:09;;;;;;;8.57;7.67;;;3.80;99.90;;;;;;5055449;28;20725;-89
2021/04/05 00:30:37;;;;;;;10.93;9.83;;;3.90;99.90;;;;;;5055694;28;20658;-88
2021/04/05 00:33:05;;;;;;;12.33;9.40;;;3.80;99.90;;;;;;5048264;28;20717;-91
2021/04/05 00:35:34;;;;;;;9.87;8.73;;;3.80;99.90;;;;;;5041509;28;20633;-87
2021/04/05 00:38:01;;;;;;;14.27;8.80;;;3.80;99.90;;;;;;5048758;28;20630;-90
2021/04/05 00:40:31;;;;;;;8.07;7.23;;;3.90;99.90;;;;;;5046024;28;21002;-89
2021/04/05 00:42:57;;;;;;;10.10;7.67;;;3.80;99.90;;;;;;5049906;28;20630;-89
2021/04/05 00:45:25;;;;;;;11.00;8.60;;;3.80;99.90;;;;;;5048005;28;20618;-89
2021/04/05 00:47:53;;;;;;;8.23;7.47;;;3.70;99.90;;;;;;5054677;28;20628;-91
2021/04/05 00:50:24;;;;;;;9.43;8.50;;;3.80;99.90;;;;;;5058828;28;20652;-89
2021/04/05 00:52:52;;;;;;;9.33;8.03;;;3.70;99.90;;;;;;5066936;28;20634;-89
2021/04/05 00:55:19;;;;;;;9.33;8.40;;;4.60;99.90;;;;;;5062660;28;20712;-89
2021/04/05 00:57:47;;;;;;;10.67;8.30;;;3.70;99.90;;;;;;5063297;28;20633;-90
2021/04/05 01:00:20;;;;;;;10.70;8.50;;;3.50;99.90;;;;;;5066371;28;20693;-89
2021/04/05 01:02:47;;;;;;;10.80;9.70;;;3.60;99.90;;;;;;5066976;28;20640;-88
2021/04/05 01:05:13;;;;;;;10.17;9.17;;;3.60;99.90;;;;;;5066379;28;20622;-87
2021/04/05 01:07:40;;;;;;;9.83;8.60;;;3.50;99.90;;;;;;5064301;28;20622;-87
2021/04/05 01:10:12;;;;;;;9.30;7.60;;;3.50;99.90;;;;;;5054243;28;20654;-90
2021/04/05 01:12:39;;;;;;;10.30;8.40;;;3.50;99.90;;;;;;5050797;28;21044;-89
2021/04/05 01:15:09;;;;;;;13.43;7.83;;;3.40;99.90;;;;;;5047319;28;20634;-87
2021/04/05 01:17:36;;;;;;;10.57;9.47;;;3.50;99.90;;;;;;5049589;28;20744;-86
2021/04/05 01:20:08;;;;;;;10.23;9.20;;;3.60;99.90;;;;;;5048173;28;20680;-86
2021/04/05 01:22:35;;;;;;;11.43;8.63;;;3.40;99.90;;;;;;5045969;28;20637;-88
2021/04/05 01:25:02;;;;;;;11.80;8.47;;;3.50;99.90;;;;;;5049620;28;20641;-88
2021/04/05 01:27:28;;;;;;;9.23;8.33;;;3.40;99.90;;;;;;5048964;28;21152;-87
2021/04/05 01:29:55;;;;;;;10.37;8.70;;;3.40;99.90;;;;;;5049627;28;21088;-89
2021/04/05 01:32:21;;;;;;;11.97;8.60;;;3.40;99.90;;;;;;5049986;28;20633;-88
2021/04/05 01:34:48;;;;;;;10.83;9.20;;;3.40;99.90;;;;;;5047163;28;20853;-86
2021/04/05 01:37:14;;;;;;;8.80;7.87;;;3.30;99.90;;;;;;5049255;28;20663;-87
2021/04/05 01:39:44;;;;;;;15.17;9.20;;;3.40;99.90;;;;;;5048157;28;20677;-86
2021/04/05 01:42:11;;;;;;;11.13;9.77;;;3.30;99.90;;;;;;5048700;28;21164;-85
2021/04/05 01:44:38;;;;;;;11.37;9.13;;;3.20;99.90;;;;;;5048219;28;20638;-86
2021/04/05 01:47:08;;;;;;;10.80;8.47;;;3.20;99.90;;;;;;5048541;28;20617;-90
2021/04/05 01:49:35;;;;;;;10.40;9.40;;;3.10;99.90;;;;;;5046687;28;20650;-87
2021/04/05 01:52:01;;;;;;;11.03;8.60;;;3.10;99.90;;;;;;5048737;28;20621;-88
2021/04/05 01:54:34;;;;;;;10.90;9.80;;;3.00;99.90;;;;;;5049023;28;21496;-87
2021/04/05 01:57:02;;;;;;;11.87;9.40;;;3.10;99.90;;;;;;5046590;28;21024;-88
2021/04/05 01:59:28;;;;;;;10.93;9.90;;;3.10;99.90;;;;;;5049105;28;21031;-89
2021/04/05 02:01:55;;;;;;;10.20;9.20;;;3.10;99.90;;;;;;5049249;28;20622;-89
2021/04/05 02:04:21;;;;;;;9.60;8.40;;;3.00;99.90;;;;;;5049048;28;20621;-88
2021/04/05 02:06:48;;;;;;;9.77;8.70;;;3.10;99.90;;;;;;5048879;28;20638;-88
2021/04/05 02:09:15;;;;;;;12.50;10.07;;;3.00;99.90;;;;;;5048321;28;20625;-88
2021/04/05 02:11:42;;;;;;;10.90;9.00;;;3.00;99.90;;;;;;5046710;28;20630;-88
2021/04/05 02:14:10;;;;;;;10.43;8.47;;;3.10;99.90;;;;;;5048758;28;21199;-87
2021/04/05 02:16:37;;;;;;;9.07;8.17;;;3.10;99.90;;;;;;5048160;28;20663;-87
2021/04/05 02:19:04;;;;;;;11.47;8.73;;;3.00;99.90;;;;;;5048958;28;20670;-89
